createdAt,value
2023-10-06T00:00:29.062Z,8.73
2023-10-06T00:03:03.026Z,7.80
2023-10-06T00:05:42.153Z,8.20
2023-10-06T00:08:13.362Z,8.00
2023-10-06T00:11:06.310Z,8.03
2023-10-06T00:13:48.772Z,8.20
2023-10-06T00:16:22.253Z,7.20
2023-10-06T00:19:01.370Z,7.60
2023-10-06T00:21:32.374Z,7.60
2023-10-06T00:24:09.747Z,7.90
2023-10-06T00:26:44.534Z,7.63
2023-10-06T00:29:29.583Z,7.03
2023-10-06T00:32:48.195Z,6.57
2023-10-06T00:35:32.645Z,6.83
2023-10-06T00:38:20.292Z,6.60
2023-10-06T00:40:55.570Z,6.57
2023-10-06T00:43:50.341Z,6.20
2023-10-06T00:46:21.421Z,6.47
2023-10-06T00:49:01.999Z,6.50
2023-10-06T00:51:30.152Z,6.30
2023-10-06T00:54:07.943Z,6.77
2023-10-06T00:56:49.743Z,6.73
2023-10-06T00:59:19.470Z,5.67
2023-10-06T01:01:55.068Z,5.60
2023-10-06T01:04:26.480Z,6.07
2023-10-06T01:06:56.148Z,5.77
2023-10-06T01:09:31.664Z,6.07
2023-10-06T01:12:07.652Z,5.93
2023-10-06T01:14:44.710Z,6.27
2023-10-06T01:17:18.535Z,6.20
2023-10-06T01:19:50.161Z,5.80
2023-10-06T01:22:34.868Z,5.80
2023-10-06T01:25:15.370Z,6.10
2023-10-06T01:27:55.408Z,6.87
2023-10-06T01:30:24.133Z,6.20
2023-10-06T01:32:53.240Z,6.63
2023-10-06T01:35:26.832Z,7.17
2023-10-06T01:38:11.698Z,6.70
2023-10-06T01:40:45.764Z,6.77
2023-10-06T01:43:16.499Z,6.73
2023-10-06T01:46:03.392Z,6.57
2023-10-06T01:51:37.389Z,6.67
2023-10-06T01:54:21.447Z,7.13
2023-10-06T01:56:58.210Z,6.90
2023-10-06T01:59:36.128Z,7.70
2023-10-06T02:02:23.268Z,7.33
2023-10-06T02:05:23.135Z,7.13
2023-10-06T02:08:08.906Z,7.20
2023-10-06T02:11:02.519Z,7.90
2023-10-06T02:13:43.263Z,9.07
2023-10-06T02:19:30.229Z,8.13
2023-10-06T02:22:08.143Z,8.60
2023-10-06T02:24:46.717Z,9.07
2023-10-06T02:27:21.279Z,9.10
2023-10-06T02:29:58.144Z,9.57
2023-10-06T02:32:42.417Z,9.43
2023-10-06T02:35:29.426Z,10.57
2023-10-06T02:38:09.844Z,10.43
2023-10-06T02:40:55.781Z,11.13
2023-10-06T02:43:24.560Z,10.87
2023-10-06T02:45:52.992Z,11.20
2023-10-06T02:48:34.844Z,12.00
2023-10-06T02:51:03.603Z,11.63
2023-10-06T02:53:37.933Z,11.77
2023-10-06T02:56:10.428Z,11.97
2023-10-06T02:58:42.923Z,11.67
2023-10-06T03:01:16.004Z,11.50
2023-10-06T03:03:48.085Z,11.10
2023-10-06T03:06:18.725Z,11.47
2023-10-06T03:08:50.994Z,11.27
2023-10-06T03:11:26.479Z,10.93
2023-10-06T03:14:00.021Z,12.10
2023-10-06T03:16:34.003Z,12.77
2023-10-06T03:19:08.728Z,13.10
2023-10-06T03:21:41.215Z,14.33
2023-10-06T03:24:22.119Z,14.50
2023-10-06T03:26:52.853Z,15.10
2023-10-06T03:29:31.940Z,15.80
2023-10-06T03:32:03.235Z,14.87
2023-10-06T03:34:54.150Z,15.27
2023-10-06T03:37:53.917Z,14.90
2023-10-06T03:40:46.458Z,14.07
2023-10-06T03:43:22.007Z,13.90
2023-10-06T03:45:50.167Z,13.63
2023-10-06T03:48:25.592Z,13.97
2023-10-06T03:50:55.689Z,14.10
2023-10-06T03:53:25.570Z,12.90
2023-10-06T03:55:54.403Z,13.40
2023-10-06T03:58:29.598Z,13.67
2023-10-06T04:01:01.349Z,12.60
2023-10-06T04:03:31.148Z,12.80
2023-10-06T04:05:59.342Z,11.77
2023-10-06T04:08:27.191Z,12.53
2023-10-06T04:10:59.386Z,12.23
2023-10-06T04:13:27.498Z,11.80
2023-10-06T04:15:59.625Z,11.93
2023-10-06T04:18:27.186Z,11.57
2023-10-06T04:20:55.872Z,11.47
2023-10-06T04:23:26.662Z,11.43
2023-10-06T04:25:58.403Z,11.83
2023-10-06T04:28:29.780Z,12.77
2023-10-06T04:31:03.373Z,13.47
2023-10-06T04:33:32.757Z,14.33
2023-10-06T04:36:02.507Z,13.30
2023-10-06T04:38:36.018Z,13.83
2023-10-06T04:41:11.726Z,13.67
2023-10-06T04:43:47.056Z,13.27
2023-10-06T04:46:18.159Z,14.03
2023-10-06T04:48:50.692Z,13.27
2023-10-06T04:55:57.696Z,13.17
2023-10-06T04:58:33.250Z,13.53
2023-10-06T05:01:12.973Z,12.87
2023-10-06T05:03:52.242Z,14.03
2023-10-06T05:06:32.937Z,13.87
2023-10-06T05:09:04.702Z,13.27
2023-10-06T05:11:36.426Z,13.30
2023-10-06T05:14:15.277Z,14.33
2023-10-06T05:16:43.251Z,14.13
2023-10-06T05:19:15.631Z,13.83
2023-10-06T05:21:45.723Z,13.80
2023-10-06T05:24:17.793Z,13.60
2023-10-06T05:26:49.564Z,14.50
2023-10-06T05:29:17.639Z,14.67
2023-10-06T05:31:57.513Z,14.77
2023-10-06T05:34:35.404Z,15.00
2023-10-06T05:37:06.921Z,15.13
2023-10-06T05:40:23.198Z,15.80
2023-10-06T05:43:14.286Z,15.73
2023-10-06T05:45:46.422Z,15.27
2023-10-06T05:48:21.706Z,16.57
2023-10-06T05:51:11.718Z,14.67
2023-10-06T05:53:45.330Z,15.97
2023-10-06T05:56:14.327Z,16.00
2023-10-06T05:58:44.711Z,16.33
2023-10-06T06:01:15.757Z,16.63
2023-10-06T06:04:10.878Z,16.67
2023-10-06T06:06:41.220Z,17.23
2023-10-06T06:09:16.155Z,18.00
2023-10-06T06:11:45.149Z,18.30
2023-10-06T06:14:24.520Z,19.50
2023-10-06T06:17:05.792Z,19.87
2023-10-06T06:19:33.646Z,20.80
2023-10-06T06:22:07.337Z,18.97
2023-10-06T06:24:42.640Z,21.17
2023-10-06T06:27:58.560Z,19.10
2023-10-06T06:30:33.932Z,19.37
2023-10-06T06:33:19.617Z,18.70
2023-10-06T06:35:48.724Z,18.73
2023-10-06T06:38:20.178Z,19.03
2023-10-06T06:40:55.562Z,19.63
2023-10-06T06:43:29.233Z,18.67
2023-10-06T06:45:58.833Z,18.90
2023-10-06T06:48:31.409Z,19.43
2023-10-06T06:51:04.212Z,20.57
2023-10-06T06:53:50.230Z,19.53
2023-10-06T06:56:22.055Z,20.30
2023-10-06T06:58:56.827Z,20.47
2023-10-06T07:01:47.224Z,19.97
2023-10-06T07:04:50.854Z,21.47
2023-10-06T07:08:08.690Z,20.63
2023-10-06T07:11:05.362Z,22.00
2023-10-06T07:13:37.125Z,22.27
2023-10-06T07:16:18.467Z,22.27
2023-10-06T07:19:02.832Z,21.73
2023-10-06T07:21:35.968Z,22.17
2023-10-06T07:24:43.840Z,21.73
2023-10-06T07:27:20.583Z,19.77
2023-10-06T07:30:00.174Z,20.70
2023-10-06T07:32:37.585Z,20.50
2023-10-06T07:35:23.517Z,20.27
2023-10-06T07:38:22.255Z,20.60
2023-10-06T07:40:51.071Z,19.00
2023-10-06T07:43:28.159Z,16.80
2023-10-06T07:45:57.307Z,16.20
2023-10-06T07:48:40.814Z,15.60
2023-10-06T07:51:42.098Z,14.30
2023-10-06T07:58:05.434Z,14.50
2023-10-06T08:00:50.000Z,14.77
2023-10-06T08:03:39.675Z,14.90
2023-10-06T08:06:24.763Z,14.40
2023-10-06T08:09:20.924Z,14.10
2023-10-06T08:12:09.832Z,13.17
2023-10-06T08:15:36.924Z,12.90
2023-10-06T08:18:22.815Z,13.23
2023-10-06T08:20:58.388Z,12.23
2023-10-06T08:27:01.832Z,12.27
2023-10-06T08:33:14.780Z,11.83
2023-10-06T08:35:56.294Z,13.03
2023-10-06T08:39:14.505Z,12.13
2023-10-06T08:42:26.195Z,10.73
2023-10-06T08:49:29.246Z,9.77
2023-10-06T08:52:22.635Z,10.07
2023-10-06T08:59:07.856Z,8.00
2023-10-06T09:02:20.307Z,6.80
2023-10-06T09:05:43.970Z,6.53
2023-10-06T09:11:13.725Z,5.77
2023-10-06T09:13:47.646Z,5.73
2023-10-06T09:16:24.296Z,5.63
2023-10-06T09:19:49.652Z,6.13
2023-10-06T09:22:30.704Z,5.30
2023-10-06T09:25:10.978Z,5.53
2023-10-06T09:28:16.377Z,4.90
2023-10-06T09:30:58.855Z,4.50
2023-10-06T09:33:48.720Z,4.63
2023-10-06T09:36:36.455Z,4.40
2023-10-06T09:39:41.350Z,3.57
2023-10-06T09:42:21.022Z,4.43
2023-10-06T09:49:07.378Z,4.30
2023-10-06T09:51:59.427Z,4.10
2023-10-06T09:58:02.924Z,3.73
2023-10-06T10:00:44.405Z,3.87
2023-10-06T10:16:13.988Z,5.07
2023-10-06T12:10:45.136Z,4.07
2023-10-06T12:14:07.365Z,3.93
2023-10-06T13:11:46.107Z,2.10
2023-10-06T13:15:01.406Z,2.60
2023-10-06T13:17:52.223Z,2.60
2023-10-06T13:20:27.083Z,2.50
2023-10-06T13:23:37.932Z,2.27
2023-10-06T13:26:27.427Z,2.33
2023-10-06T13:29:18.482Z,2.30
2023-10-06T14:14:47.461Z,2.50
2023-10-06T14:17:27.306Z,2.20
2023-10-06T14:19:58.230Z,2.00
2023-10-06T14:22:34.835Z,2.10
2023-10-06T14:25:09.245Z,2.20
2023-10-06T14:27:46.429Z,2.40
2023-10-06T14:30:19.051Z,2.13
2023-10-06T14:50:33.278Z,2.30
2023-10-06T14:53:05.355Z,1.77
2023-10-06T14:55:43.924Z,1.83
2023-10-06T14:58:16.596Z,1.87
2023-10-06T15:00:49.824Z,2.00
2023-10-06T15:03:32.132Z,2.43
2023-10-06T15:06:13.608Z,2.13
2023-10-06T15:08:56.374Z,1.97
2023-10-06T15:11:29.090Z,2.20
2023-10-06T15:13:59.339Z,2.40
2023-10-06T15:16:30.952Z,2.40
2023-10-06T15:18:59.458Z,2.27
2023-10-06T15:21:32.297Z,2.40
2023-10-06T15:24:03.053Z,2.50
2023-10-06T15:26:45.666Z,2.43
2023-10-06T15:29:26.200Z,2.33
2023-10-06T15:32:06.198Z,2.30
2023-10-06T15:34:42.906Z,2.17
2023-10-06T15:37:22.034Z,2.50
2023-10-06T15:39:53.611Z,2.40
2023-10-06T15:42:42.377Z,2.50
2023-10-06T15:45:18.558Z,2.07
2023-10-06T15:47:53.722Z,2.93
2023-10-06T15:50:31.621Z,2.47
2023-10-06T15:53:16.795Z,2.23
2023-10-06T15:56:17.844Z,2.67
2023-10-06T16:11:05.228Z,2.30
2023-10-06T16:29:00.923Z,2.63
2023-10-06T16:32:10.083Z,2.40
2023-10-06T16:35:06.869Z,2.50
2023-10-06T16:37:54.432Z,2.53
2023-10-06T16:40:48.494Z,2.60
2023-10-06T16:43:23.006Z,2.50
2023-10-06T16:45:59.463Z,2.47
2023-10-06T16:48:33.679Z,2.70
2023-10-06T16:54:25.900Z,3.00
2023-10-06T16:57:08.412Z,2.80
2023-10-06T16:59:53.453Z,3.23
2023-10-06T17:02:47.887Z,3.03
2023-10-06T17:05:24.933Z,3.03
2023-10-06T17:07:59.415Z,2.60
2023-10-06T17:10:32.012Z,2.90
2023-10-06T17:13:04.707Z,3.00
2023-10-06T17:15:32.935Z,2.97
2023-10-06T17:21:10.206Z,2.90
2023-10-06T17:23:51.169Z,3.20
2023-10-06T17:26:24.947Z,3.50
2023-10-06T17:28:55.434Z,3.37
2023-10-06T17:31:34.728Z,3.63
2023-10-06T17:34:05.451Z,3.40
2023-10-06T17:36:34.603Z,3.67
2023-10-06T17:39:09.517Z,3.60
2023-10-06T17:41:45.462Z,3.47
2023-10-06T17:44:25.532Z,3.57
2023-10-06T17:46:55.760Z,3.40
2023-10-06T17:49:37.297Z,3.83
2023-10-06T17:52:18.960Z,3.93
2023-10-06T17:54:58.384Z,3.90
2023-10-06T18:01:10.689Z,4.23
2023-10-06T18:03:49.372Z,3.60
2023-10-06T18:06:36.977Z,3.90
2023-10-06T18:09:20.199Z,4.00
2023-10-06T18:12:23.587Z,3.80
2023-10-06T18:15:08.534Z,3.50
2023-10-06T18:17:50.415Z,3.60
2023-10-06T18:20:43.319Z,3.80
2023-10-06T18:23:14.080Z,4.10
2023-10-06T18:25:58.665Z,4.23
2023-10-06T18:28:31.386Z,3.93
2023-10-06T18:31:11.613Z,4.67
2023-10-06T18:33:50.346Z,4.20
2023-10-06T18:36:24.819Z,3.90
2023-10-06T18:39:08.860Z,4.37
2023-10-06T18:41:53.561Z,3.90
2023-10-06T18:44:47.408Z,4.23
2023-10-06T18:47:38.971Z,4.00
2023-10-06T18:50:27.703Z,4.03
2023-10-06T18:52:57.940Z,3.90
2023-10-06T18:55:33.149Z,4.27
2023-10-06T18:58:07.233Z,4.17
2023-10-06T19:00:53.476Z,4.60
2023-10-06T19:03:56.160Z,4.10
2023-10-06T19:06:32.784Z,4.10
2023-10-06T19:09:07.426Z,4.10
2023-10-06T19:11:42.011Z,4.37
2023-10-06T19:14:11.730Z,4.10
2023-10-06T19:16:57.164Z,4.47
2023-10-06T19:19:46.825Z,4.13
2023-10-06T19:22:20.716Z,4.30
2023-10-06T19:24:57.968Z,3.67
2023-10-06T19:27:29.073Z,4.10
2023-10-06T19:30:00.005Z,4.30
2023-10-06T19:32:29.941Z,4.03
2023-10-06T19:35:14.492Z,4.30
2023-10-06T19:37:46.336Z,4.13
2023-10-06T19:40:19.322Z,4.17
2023-10-06T19:43:53.380Z,4.07
2023-10-06T19:46:41.619Z,4.27
2023-10-06T19:50:35.671Z,4.10
2023-10-06T19:57:17.970Z,4.67
2023-10-06T20:00:08.489Z,4.43
2023-10-06T20:06:13.278Z,4.93
2023-10-06T21:01:06.103Z,5.20
2023-10-06T21:03:57.294Z,5.10
2023-10-06T22:04:43.105Z,7.07
2023-10-06T22:07:23.909Z,6.90
2023-10-06T22:09:54.235Z,7.47
2023-10-06T22:12:26.424Z,7.10
2023-10-06T22:17:41.816Z,7.67
2023-10-06T22:20:13.430Z,7.83
2023-10-06T22:23:03.918Z,8.80
2023-10-06T22:25:48.721Z,7.83
2023-10-06T22:28:28.274Z,7.67
2023-10-06T22:31:16.012Z,7.13
2023-10-06T22:33:49.167Z,7.83
2023-10-06T22:36:31.350Z,7.50
2023-10-06T22:39:02.113Z,7.30
2023-10-06T22:41:32.865Z,6.90
2023-10-06T22:44:13.279Z,6.43
2023-10-06T22:46:46.047Z,7.10
2023-10-06T22:49:15.802Z,6.57
2023-10-06T22:51:47.441Z,6.53
2023-10-06T22:54:18.426Z,6.60
2023-10-06T22:56:49.568Z,6.70
2023-10-06T22:59:22.026Z,6.90
2023-10-06T23:02:14.592Z,6.10
2023-10-06T23:04:48.248Z,5.83
2023-10-06T23:07:21.654Z,5.67
2023-10-06T23:09:57.458Z,5.90
2023-10-06T23:12:34.918Z,6.03
2023-10-06T23:15:08.017Z,5.47
2023-10-06T23:17:46.484Z,5.27
2023-10-06T23:20:46.821Z,5.50
2023-10-06T23:23:21.879Z,5.50
2023-10-06T23:25:54.072Z,5.13
2023-10-06T23:28:33.759Z,5.13
2023-10-06T23:31:13.762Z,5.10
2023-10-06T23:33:48.035Z,5.00
2023-10-06T23:36:30.233Z,5.10
2023-10-06T23:39:20.191Z,4.90
2023-10-06T23:41:58.623Z,4.67
2023-10-06T23:45:04.224Z,4.60
